N1972A KLGA-KALB
Flight info
| Callsign | N1972A |
|---|---|
| Flight time | 0h 34m |
| Altitude | 5000 |
| Route | LGA IGN ALB |
| Aircraft | B190/M-S/N |
Departure
| Time | 2026-04-20 17:35 |
|---|---|
| Airport | LaGuardia Airport (KLGA) |
Arrival
| Time | 2026-04-20 18:09 |
|---|---|
| Airport | Albany International Airport (KALB) |
| Time | Latitude | Longitude | Altitude | Speed | Heading |
|---|---|---|---|---|---|
| 2026-04-20 17:23 | 40.77121 | -73.86363 | 27 ft | 0 kts | 172° |
| 2026-04-20 17:27 | 40.77122 | -73.86364 | 27 ft | 1 kts | 172° |
| 2026-04-20 17:27 | 40.77135 | -73.86366 | 27 ft | 2 kts | 172° |
| 2026-04-20 17:27 | 40.77153 | -73.86368 | 27 ft | 3 kts | 176° |
| 2026-04-20 17:28 | 40.77172 | -73.86374 | 27 ft | 3 kts | 152° |
| 2026-04-20 17:28 | 40.77182 | -73.86396 | 27 ft | 3 kts | 98° |
| 2026-04-20 17:28 | 40.77182 | -73.86423 | 27 ft | 3 kts | 82° |
| 2026-04-20 17:28 | 40.77182 | -73.86426 | 27 ft | 0 kts | 82° |
| 2026-04-20 17:29 | 40.77182 | -73.86425 | 27 ft | 0 kts | 82° |
| 2026-04-20 17:30 | 40.77183 | -73.86415 | 27 ft | 6 kts | 82° |
| 2026-04-20 17:31 | 40.77215 | -73.86328 | 27 ft | 10 kts | 46° |
| 2026-04-20 17:31 | 40.77265 | -73.86266 | 27 ft | 11 kts | 62° |
| 2026-04-20 17:31 | 40.77241 | -73.86187 | 27 ft | 11 kts | 121° |
| 2026-04-20 17:31 | 40.77204 | -73.86105 | 27 ft | 9 kts | 119° |
| 2026-04-20 17:32 | 40.77169 | -73.86023 | 27 ft | 11 kts | 120° |
| 2026-04-20 17:32 | 40.77135 | -73.85947 | 27 ft | 10 kts | 120° |
| 2026-04-20 17:32 | 40.77118 | -73.85875 | 27 ft | 7 kts | 63° |
| 2026-04-20 17:32 | 40.77151 | -73.85834 | 27 ft | 6 kts | 32° |
| 2026-04-20 17:33 | 40.77156 | -73.85830 | 27 ft | 0 kts | 32° |
| 2026-04-20 17:33 | 40.77158 | -73.85828 | 27 ft | 3 kts | 32° |
| 2026-04-20 17:33 | 40.77198 | -73.85796 | 27 ft | 10 kts | 31° |
| 2026-04-20 17:33 | 40.77248 | -73.85803 | 27 ft | 6 kts | 314° |
| 2026-04-20 17:34 | 40.77271 | -73.85845 | 27 ft | 3 kts | 304° |
| 2026-04-20 17:34 | 40.77341 | -73.85985 | 27 ft | 61 kts | 302° |
| 2026-04-20 17:34 | 40.77693 | -73.86727 | 32 ft | 119 kts | 302° |
| 2026-04-20 17:34 | 40.78179 | -73.87752 | 197 ft | 144 kts | 302° |
| 2026-04-20 17:35 | 40.78753 | -73.88896 | 643 ft | 154 kts | 303° |
| 2026-04-20 17:35 | 40.79411 | -73.90045 | 1064 ft | 161 kts | 315° |
| 2026-04-20 17:35 | 40.80432 | -73.90644 | 1513 ft | 167 kts | 349° |
| 2026-04-20 17:35 | 40.81592 | -73.90363 | 1985 ft | 174 kts | 18° |
| 2026-04-20 17:36 | 40.82667 | -73.89625 | 2457 ft | 177 kts | 26° |
| 2026-04-20 17:36 | 40.83733 | -73.88772 | 2916 ft | 180 kts | 28° |
| 2026-04-20 17:36 | 40.84805 | -73.87886 | 3360 ft | 183 kts | 26° |
| 2026-04-20 17:36 | 40.85899 | -73.87025 | 3813 ft | 183 kts | 24° |
| 2026-04-20 17:37 | 40.87006 | -73.86227 | 4263 ft | 182 kts | 22° |
| 2026-04-20 17:37 | 40.88102 | -73.85391 | 4710 ft | 183 kts | 26° |
| 2026-04-20 17:37 | 40.89178 | -73.84492 | 5135 ft | 187 kts | 34° |
| 2026-04-20 17:37 | 40.90375 | -73.83625 | 5364 ft | 207 kts | 28° |
| 2026-04-20 17:38 | 40.91711 | -73.82690 | 5467 ft | 226 kts | 25° |
| 2026-04-20 17:38 | 40.93115 | -73.81678 | 5433 ft | 236 kts | 24° |
| 2026-04-20 17:38 | 40.94593 | -73.80735 | 5407 ft | 236 kts | 20° |
| 2026-04-20 17:38 | 40.96124 | -73.80018 | 5461 ft | 234 kts | 17° |
| 2026-04-20 17:39 | 40.97744 | -73.79690 | 5557 ft | 238 kts | 7° |
| 2026-04-20 17:39 | 40.99418 | -73.79726 | 5603 ft | 243 kts | 359° |
| 2026-04-20 17:39 | 41.01101 | -73.80068 | 5620 ft | 247 kts | 353° |
| 2026-04-20 17:39 | 41.02779 | -73.80631 | 5544 ft | 252 kts | 348° |
| 2026-04-20 17:40 | 41.04448 | -73.81318 | 5514 ft | 252 kts | 346° |
| 2026-04-20 17:40 | 41.06100 | -73.82038 | 5505 ft | 248 kts | 347° |
| 2026-04-20 17:40 | 41.07734 | -73.82697 | 5498 ft | 244 kts | 350° |
| 2026-04-20 17:40 | 41.09391 | -73.83181 | 5506 ft | 246 kts | 353° |
| 2026-04-20 17:41 | 41.11099 | -73.83419 | 5518 ft | 249 kts | 358° |
| 2026-04-20 17:41 | 41.12833 | -73.83426 | 5519 ft | 251 kts | 3° |
| 2026-04-20 17:41 | 41.14558 | -73.83182 | 5540 ft | 247 kts | 5° |
| 2026-04-20 17:41 | 41.16228 | -73.82732 | 5525 ft | 245 kts | 9° |
| 2026-04-20 17:42 | 41.17899 | -73.82248 | 5524 ft | 247 kts | 8° |
| 2026-04-20 17:42 | 41.19585 | -73.81811 | 5524 ft | 247 kts | 5° |
| 2026-04-20 17:42 | 41.21272 | -73.81487 | 5523 ft | 245 kts | 1° |
| 2026-04-20 17:42 | 41.22958 | -73.81319 | 5524 ft | 242 kts | 357° |
| 2026-04-20 17:43 | 41.24635 | -73.81322 | 5529 ft | 240 kts | 352° |
| 2026-04-20 17:43 | 41.26292 | -73.81472 | 5531 ft | 239 kts | 349° |
| 2026-04-20 17:43 | 41.27936 | -73.81725 | 5532 ft | 238 kts | 347° |
| 2026-04-20 17:43 | 41.29576 | -73.82023 | 5530 ft | 238 kts | 346° |
| 2026-04-20 17:44 | 41.31219 | -73.82307 | 5541 ft | 237 kts | 349° |
| 2026-04-20 17:44 | 41.32841 | -73.82543 | 5539 ft | 235 kts | 350° |
| 2026-04-20 17:44 | 41.34470 | -73.82664 | 5549 ft | 234 kts | 353° |
| 2026-04-20 17:44 | 41.36094 | -73.82661 | 5551 ft | 233 kts | 356° |
| 2026-04-20 17:45 | 41.37712 | -73.82558 | 5518 ft | 233 kts | 359° |
| 2026-04-20 17:45 | 41.39324 | -73.82400 | 5503 ft | 232 kts | 0° |
| 2026-04-20 17:45 | 41.40925 | -73.82233 | 5493 ft | 231 kts | 359° |
| 2026-04-20 17:45 | 41.42522 | -73.82107 | 5485 ft | 229 kts | 358° |
| 2026-04-20 17:46 | 41.44104 | -73.82057 | 5487 ft | 227 kts | 355° |
| 2026-04-20 17:46 | 41.45681 | -73.82082 | 5486 ft | 226 kts | 354° |
| 2026-04-20 17:46 | 41.47246 | -73.82156 | 5485 ft | 226 kts | 353° |
| 2026-04-20 17:46 | 41.48812 | -73.82239 | 5486 ft | 225 kts | 354° |
| 2026-04-20 17:47 | 41.50370 | -73.82319 | 5470 ft | 225 kts | 355° |
| 2026-04-20 17:47 | 41.51932 | -73.82348 | 5465 ft | 225 kts | 357° |
| 2026-04-20 17:47 | 41.53491 | -73.82308 | 5463 ft | 224 kts | 358° |
| 2026-04-20 17:47 | 41.55045 | -73.82237 | 5462 ft | 224 kts | 359° |
| 2026-04-20 17:48 | 41.56602 | -73.82191 | 5460 ft | 224 kts | 357° |
| 2026-04-20 17:48 | 41.58154 | -73.82203 | 5447 ft | 224 kts | 356° |
| 2026-04-20 17:48 | 41.59711 | -73.82245 | 5434 ft | 224 kts | 356° |
| 2026-04-20 17:48 | 41.61268 | -73.82253 | 5431 ft | 224 kts | 357° |
| 2026-04-20 17:49 | 41.62828 | -73.82220 | 5431 ft | 224 kts | 358° |
| 2026-04-20 17:49 | 41.64383 | -73.82225 | 5432 ft | 224 kts | 356° |
| 2026-04-20 17:49 | 41.65936 | -73.82232 | 5432 ft | 224 kts | 358° |
| 2026-04-20 17:49 | 41.67500 | -73.82198 | 5408 ft | 226 kts | 358° |
| 2026-04-20 17:50 | 41.69071 | -73.82134 | 5397 ft | 227 kts | 359° |
| 2026-04-20 17:50 | 41.70635 | -73.82091 | 5465 ft | 224 kts | 358° |
| 2026-04-20 17:50 | 41.72184 | -73.82129 | 5491 ft | 223 kts | 355° |
| 2026-04-20 17:50 | 41.73735 | -73.82227 | 5495 ft | 224 kts | 354° |
| 2026-04-20 17:51 | 41.75292 | -73.82282 | 5492 ft | 225 kts | 357° |
| 2026-04-20 17:51 | 41.76865 | -73.82257 | 5463 ft | 227 kts | 359° |
| 2026-04-20 17:51 | 41.78445 | -73.82214 | 5456 ft | 228 kts | 358° |
| 2026-04-20 17:51 | 41.80029 | -73.82199 | 5455 ft | 228 kts | 358° |
| 2026-04-20 17:52 | 41.81608 | -73.82211 | 5456 ft | 228 kts | 357° |
| 2026-04-20 17:52 | 41.83190 | -73.82230 | 5457 ft | 228 kts | 357° |
| 2026-04-20 17:52 | 41.84767 | -73.82240 | 5478 ft | 227 kts | 357° |
| 2026-04-20 17:52 | 41.86338 | -73.82236 | 5497 ft | 226 kts | 357° |
| 2026-04-20 17:53 | 41.87907 | -73.82227 | 5505 ft | 226 kts | 357° |
| 2026-04-20 17:53 | 41.89475 | -73.82219 | 5510 ft | 226 kts | 357° |
| 2026-04-20 17:53 | 41.91044 | -73.82215 | 5512 ft | 226 kts | 357° |
| 2026-04-20 17:53 | 41.92613 | -73.82216 | 5514 ft | 226 kts | 357° |
| 2026-04-20 17:54 | 41.94183 | -73.82222 | 5503 ft | 227 kts | 357° |
| 2026-04-20 17:54 | 41.95759 | -73.82229 | 5501 ft | 227 kts | 357° |
| 2026-04-20 17:54 | 41.97333 | -73.82236 | 5501 ft | 227 kts | 357° |
| 2026-04-20 17:54 | 41.98908 | -73.82239 | 5501 ft | 227 kts | 357° |
| 2026-04-20 17:55 | 42.00482 | -73.82239 | 5501 ft | 227 kts | 357° |
| 2026-04-20 17:55 | 42.02056 | -73.82239 | 5508 ft | 226 kts | 357° |
| 2026-04-20 17:55 | 42.03625 | -73.82242 | 5514 ft | 226 kts | 357° |
| 2026-04-20 17:55 | 42.05193 | -73.82246 | 5517 ft | 226 kts | 357° |
| 2026-04-20 17:56 | 42.06761 | -73.82247 | 5518 ft | 226 kts | 357° |
| 2026-04-20 17:56 | 42.08328 | -73.82247 | 5518 ft | 226 kts | 358° |
| 2026-04-20 17:56 | 42.09894 | -73.82244 | 5519 ft | 226 kts | 358° |
| 2026-04-20 17:56 | 42.11460 | -73.82224 | 5532 ft | 225 kts | 358° |
| 2026-04-20 17:57 | 42.13021 | -73.82247 | 5536 ft | 225 kts | 355° |
| 2026-04-20 17:57 | 42.14580 | -73.82340 | 5537 ft | 225 kts | 354° |
| 2026-04-20 17:57 | 42.16131 | -73.82456 | 5538 ft | 224 kts | 354° |
| 2026-04-20 17:57 | 42.17693 | -73.82583 | 5540 ft | 224 kts | 354° |
| 2026-04-20 17:58 | 42.19238 | -73.82714 | 5542 ft | 224 kts | 354° |
| 2026-04-20 17:58 | 42.20796 | -73.82857 | 5554 ft | 224 kts | 354° |
| 2026-04-20 17:58 | 42.22348 | -73.83015 | 5551 ft | 224 kts | 354° |
| 2026-04-20 17:58 | 42.23900 | -73.83180 | 5551 ft | 225 kts | 354° |
| 2026-04-20 17:59 | 42.25460 | -73.83348 | 5540 ft | 225 kts | 354° |
| 2026-04-20 17:59 | 42.27023 | -73.83518 | 5508 ft | 227 kts | 353° |
| 2026-04-20 17:59 | 42.28581 | -73.83683 | 5508 ft | 226 kts | 353° |
| 2026-04-20 17:59 | 42.30154 | -73.83845 | 5510 ft | 226 kts | 353° |
| 2026-04-20 18:00 | 42.31716 | -73.83997 | 5509 ft | 226 kts | 355° |
| 2026-04-20 18:00 | 42.33283 | -73.83997 | 5507 ft | 226 kts | 359° |
| 2026-04-20 18:00 | 42.34839 | -73.83900 | 5498 ft | 221 kts | 1° |
| 2026-04-20 18:00 | 42.36353 | -73.83771 | 5495 ft | 216 kts | 1° |
| 2026-04-20 18:01 | 42.37837 | -73.83642 | 5480 ft | 213 kts | 1° |
| 2026-04-20 18:01 | 42.39305 | -73.83485 | 5476 ft | 211 kts | 4° |
| 2026-04-20 18:01 | 42.40747 | -73.83236 | 5475 ft | 208 kts | 6° |
| 2026-04-20 18:01 | 42.42157 | -73.82930 | 5470 ft | 203 kts | 11° |
| 2026-04-20 18:02 | 42.43442 | -73.82241 | 5494 ft | 196 kts | 23° |
| 2026-04-20 18:02 | 42.44609 | -73.81363 | 5500 ft | 189 kts | 26° |
| 2026-04-20 18:02 | 42.45730 | -73.80537 | 5508 ft | 181 kts | 22° |
| 2026-04-20 18:02 | 42.46866 | -73.79823 | 5410 ft | 180 kts | 19° |
| 2026-04-20 18:03 | 42.48050 | -73.79221 | 5228 ft | 184 kts | 13° |
| 2026-04-20 18:03 | 42.49298 | -73.78803 | 5029 ft | 187 kts | 6° |
| 2026-04-20 18:03 | 42.50604 | -73.78637 | 4812 ft | 191 kts | 358° |
| 2026-04-20 18:03 | 42.51947 | -73.78729 | 4591 ft | 195 kts | 350° |
| 2026-04-20 18:04 | 42.53299 | -73.78997 | 4351 ft | 198 kts | 346° |
| 2026-04-20 18:04 | 42.54639 | -73.79349 | 4082 ft | 195 kts | 345° |
| 2026-04-20 18:04 | 42.55966 | -73.79682 | 3789 ft | 193 kts | 347° |
| 2026-04-20 18:04 | 42.57209 | -73.79899 | 3479 ft | 170 kts | 351° |
| 2026-04-20 18:05 | 42.59459 | -73.79979 | 2922 ft | 158 kts | 357° |
| 2026-04-20 18:05 | 42.60555 | -73.79939 | 2728 ft | 159 kts | 358° |
| 2026-04-20 18:05 | 42.61661 | -73.79909 | 2571 ft | 160 kts | 357° |
| 2026-04-20 18:06 | 42.62766 | -73.79914 | 2413 ft | 160 kts | 355° |
| 2026-04-20 18:06 | 42.63861 | -73.79936 | 2256 ft | 154 kts | 354° |
| 2026-04-20 18:06 | 42.64919 | -73.79978 | 2043 ft | 152 kts | 353° |
| 2026-04-20 18:06 | 42.65967 | -73.80042 | 1826 ft | 151 kts | 352° |
| 2026-04-20 18:07 | 42.67013 | -73.80113 | 1619 ft | 150 kts | 352° |
| 2026-04-20 18:07 | 42.68051 | -73.80176 | 1421 ft | 150 kts | 352° |
| 2026-04-20 18:07 | 42.69095 | -73.80241 | 1222 ft | 150 kts | 353° |
| 2026-04-20 18:07 | 42.70132 | -73.80299 | 1022 ft | 149 kts | 355° |
| 2026-04-20 18:08 | 42.71165 | -73.80344 | 818 ft | 147 kts | 357° |
| 2026-04-20 18:08 | 42.72174 | -73.80389 | 640 ft | 142 kts | 358° |
| 2026-04-20 18:08 | 42.73132 | -73.80416 | 452 ft | 136 kts | 359° |
| 2026-04-20 18:08 | 42.74045 | -73.80444 | 294 ft | 121 kts | 358° |
| 2026-04-20 18:09 | 42.74722 | -73.80471 | 290 ft | 80 kts | 359° |
| 2026-04-20 18:09 | 42.75154 | -73.80487 | 290 ft | 42 kts | 358° |
| 2026-04-20 18:09 | 42.75325 | -73.80495 | 290 ft | 19 kts | 358° |
| 2026-04-20 18:09 | 42.75401 | -73.80540 | 290 ft | 6 kts | 269° |
| 2026-04-20 18:10 | 42.75400 | -73.80571 | 290 ft | 0 kts | 268° |
| 2026-04-20 18:10 | 42.75400 | -73.80598 | 290 ft | 11 kts | 267° |
| 2026-04-20 18:10 | 42.75362 | -73.80649 | 290 ft | 10 kts | 178° |
| 2026-04-20 18:11 | 42.75283 | -73.80646 | 290 ft | 9 kts | 178° |
| 2026-04-20 18:11 | 42.75212 | -73.80643 | 290 ft | 11 kts | 178° |
| 2026-04-20 18:11 | 42.75142 | -73.80641 | 290 ft | 11 kts | 178° |
| 2026-04-20 18:11 | 42.75073 | -73.80639 | 290 ft | 10 kts | 179° |
| 2026-04-20 18:12 | 42.75002 | -73.80636 | 290 ft | 10 kts | 177° |
| 2026-04-20 18:12 | 42.74930 | -73.80633 | 290 ft | 10 kts | 179° |
| 2026-04-20 18:12 | 42.74860 | -73.80631 | 290 ft | 10 kts | 179° |
| 2026-04-20 18:12 | 42.74791 | -73.80627 | 290 ft | 11 kts | 178° |
| 2026-04-20 18:13 | 42.74721 | -73.80625 | 290 ft | 10 kts | 179° |
| 2026-04-20 18:13 | 42.74651 | -73.80622 | 290 ft | 10 kts | 178° |
| 2026-04-20 18:13 | 42.74579 | -73.80619 | 290 ft | 10 kts | 178° |
| 2026-04-20 18:13 | 42.74508 | -73.80616 | 290 ft | 11 kts | 178° |
| 2026-04-20 18:14 | 42.74439 | -73.80614 | 290 ft | 11 kts | 178° |
| 2026-04-20 18:14 | 42.74369 | -73.80611 | 290 ft | 10 kts | 178° |
| 2026-04-20 18:14 | 42.74298 | -73.80609 | 290 ft | 10 kts | 178° |
| 2026-04-20 18:14 | 42.74227 | -73.80606 | 290 ft | 10 kts | 178° |
| 2026-04-20 18:15 | 42.74157 | -73.80604 | 290 ft | 11 kts | 178° |
| 2026-04-20 18:15 | 42.74088 | -73.80601 | 290 ft | 11 kts | 178° |
| 2026-04-20 18:15 | 42.74018 | -73.80599 | 290 ft | 10 kts | 178° |
| 2026-04-20 18:15 | 42.73957 | -73.80597 | 290 ft | 7 kts | 188° |
| 2026-04-20 18:16 | 42.73929 | -73.80636 | 290 ft | 5 kts | 223° |
| 2026-04-20 18:16 | 42.73883 | -73.80649 | 290 ft | 8 kts | 197° |
| 2026-04-20 18:16 | 42.73860 | -73.80677 | 290 ft | 2 kts | 256° |
| 2026-04-20 18:16 | 42.73859 | -73.80701 | 290 ft | 1 kts | 270° |
| 2026-04-20 18:17 | 42.73859 | -73.80704 | 290 ft | 0 kts | 270° |